This is the latest recevied weather packets stored in our database for station/object CW79215. If no packets are shown the sender has not sent any weather packets the latest 10 day(s).
| Time | Temp. | Humidity | Pressure | Rain* | Wind** | Luminosity | Snow |
|---|---|---|---|---|---|---|---|
| 1777226829 | 16.11° C | 45% | 1023.8 hPa | - | - | - | - |
| 1777225929 | 16.67° C | 44% | 1023.7 hPa | - | - | - | - |
| 1777225029 | 17.22° C | 44% | 1023.6 hPa | - | - | - | - |
| 1777224129 | 17.22° C | 44% | 1023.5 hPa | - | - | - | - |
| 1777223229 | 17.78° C | 41% | 1023.4 hPa | - | - | - | - |
| 1777222329 | 18.33° C | 41% | 1023.4 hPa | - | - | - | - |
| 1777221429 | 18.89° C | 40% | 1023.4 hPa | - | - | - | - |
| 1777220528 | 19.44° C | 37% | 1023.4 hPa | - | - | - | - |
| 1777219628 | 20° C | 35% | 1023.4 hPa | - | - | - | - |
| 1777218728 | 20.56° C | 31% | 1023.3 hPa | - | - | - | - |
| 1777217828 | 20.56° C | 28% | 1023.3 hPa | - | - | - | - |
| 1777216928 | 20.56° C | 30% | 1023.3 hPa | - | - | - | - |
| 1777216028 | 20.56° C | 28% | 1023.4 hPa | - | - | - | - |
| 1777215128 | 21.11° C | 27% | 1023.4 hPa | - | - | - | - |
| 1777214228 | 21.67° C | 20% | 1023.5 hPa | - | - | - | - |
| 1777213328 | 21.11° C | 21% | 1023.6 hPa | - | - | - | - |
| 1777212428 | 21.67° C | 19% | 1023.7 hPa | - | - | - | - |
| 1777211528 | 21.67° C | 19% | 1023.8 hPa | - | - | - | - |
| 1777210628 | 21.11° C | 27% | 1023.9 hPa | - | - | - | - |
| 1777209727 | 21.67° C | 23% | 1024 hPa | - | - | - | - |
| 1777208827 | 21.11° C | 28% | 1024.3 hPa | - | - | - | - |
| 1777207927 | 21.67° C | 27% | 1024.3 hPa | - | - | - | - |
| 1777207027 | 21.11° C | 30% | 1024.5 hPa | - | - | - | - |
| 1777206127 | 21.11° C | 25% | 1024.6 hPa | - | - | - | - |
| 1777205227 | 20.56° C | 22% | 1024.7 hPa | - | - | - | - |
* Rain since midnight (hover to see other rain measurements)
** Current wind speed in m/s (hover to see current wind gust speed)